createdAt,value
2022-09-14T00:01:45.260Z,59.81
2022-09-14T00:04:17.273Z,59.81
2022-09-14T00:06:47.372Z,59.65
2022-09-14T00:09:17.828Z,59.52
2022-09-14T00:11:46.467Z,59.27
2022-09-14T00:14:15.608Z,59.38
2022-09-14T00:16:45.188Z,59.78
2022-09-14T00:19:20.142Z,59.80
2022-09-14T00:21:51.939Z,60.33
2022-09-14T00:24:20.880Z,60.15
2022-09-14T00:26:51.693Z,59.90
2022-09-14T00:29:20.789Z,60.38
2022-09-14T00:31:49.746Z,60.77
2022-09-14T00:34:20.007Z,59.86
2022-09-14T00:36:50.262Z,59.86
2022-09-14T00:39:20.027Z,59.70
2022-09-14T00:41:49.756Z,60.09
2022-09-14T00:44:59.333Z,59.71
2022-09-14T00:47:30.212Z,59.88
2022-09-14T00:50:01.430Z,59.75
2022-09-14T00:52:32.847Z,60.51
2022-09-14T00:55:01.809Z,60.39
2022-09-14T00:57:33.684Z,60.17
2022-09-14T01:00:02.730Z,60.29
2022-09-14T01:02:32.334Z,60.40
2022-09-14T01:05:02.423Z,60.35
2022-09-14T01:07:40.236Z,60.02
2022-09-14T01:10:17.237Z,60.27
2022-09-14T01:12:50.640Z,60.23
2022-09-14T01:15:25.265Z,60.58
2022-09-14T01:17:59.888Z,60.77
2022-09-14T01:20:34.285Z,61.43
2022-09-14T01:23:10.125Z,61.52
2022-09-14T01:25:59.953Z,61.10
2022-09-14T01:28:33.801Z,61.75
2022-09-14T01:31:05.250Z,61.47
2022-09-14T01:33:38.166Z,61.53
2022-09-14T01:36:08.531Z,61.82
2022-09-14T01:38:40.142Z,61.35
2022-09-14T01:41:10.838Z,61.51
2022-09-14T01:43:43.032Z,61.75
2022-09-14T01:46:14.716Z,61.77
2022-09-14T01:49:02.856Z,61.86
2022-09-14T01:51:35.929Z,61.33
2022-09-14T01:54:08.789Z,61.46
2022-09-14T01:56:41.556Z,61.33
2022-09-14T01:59:15.037Z,61.80
2022-09-14T02:01:50.356Z,61.83
2022-09-14T02:04:46.269Z,61.52
2022-09-14T02:07:15.218Z,61.35
2022-09-14T02:09:44.439Z,61.89
2022-09-14T02:12:15.014Z,62.12
2022-09-14T02:14:45.732Z,62.01
2022-09-14T02:17:15.084Z,61.38
2022-09-14T02:19:48.260Z,61.60
2022-09-14T02:22:16.829Z,62.31
2022-09-14T02:24:45.989Z,62.52
2022-09-14T02:27:14.579Z,62.37
2022-09-14T02:29:43.360Z,62.36
2022-09-14T02:32:22.514Z,62.89
2022-09-14T02:34:57.695Z,63.15
2022-09-14T02:37:31.427Z,63.26
2022-09-14T02:40:06.656Z,62.79
2022-09-14T02:42:38.293Z,62.39
2022-09-14T02:45:12.460Z,62.59
2022-09-14T02:47:55.304Z,62.06
2022-09-14T02:50:28.053Z,61.61
2022-09-14T02:53:00.979Z,62.22
2022-09-14T02:55:39.397Z,63.31
2022-09-14T02:58:10.561Z,63.87
2022-09-14T03:00:40.660Z,63.00
2022-09-14T03:03:13.067Z,63.46
2022-09-14T03:05:41.952Z,63.43
2022-09-14T03:08:11.712Z,62.56
2022-09-14T03:10:43.443Z,62.60
2022-09-14T03:13:12.639Z,61.60
2022-09-14T03:15:41.655Z,61.75
2022-09-14T03:18:14.402Z,62.39
2022-09-14T03:20:46.936Z,62.26
2022-09-14T03:23:16.208Z,62.28
2022-09-14T03:25:45.778Z,62.48
2022-09-14T03:28:14.450Z,62.97
2022-09-14T03:30:43.255Z,62.36
2022-09-14T03:33:15.344Z,61.98
2022-09-14T03:35:43.917Z,61.87
2022-09-14T03:38:12.705Z,61.38
2022-09-14T03:40:41.295Z,62.12
2022-09-14T03:43:12.356Z,61.68
2022-09-14T03:45:42.377Z,61.92
2022-09-14T03:48:11.503Z,60.78
2022-09-14T03:50:41.467Z,62.25
2022-09-14T03:53:10.330Z,61.88
2022-09-14T03:55:41.250Z,61.39
2022-09-14T03:58:09.883Z,61.06
2022-09-14T04:00:38.381Z,60.53
2022-09-14T04:03:07.278Z,60.54
2022-09-14T04:05:35.859Z,60.24
2022-09-14T04:08:05.882Z,60.31
2022-09-14T04:10:34.971Z,60.68
2022-09-14T04:13:04.033Z,60.43
2022-09-14T04:15:32.792Z,60.49
2022-09-14T04:18:01.695Z,60.69
2022-09-14T04:20:30.301Z,61.10
2022-09-14T04:22:58.871Z,60.97
2022-09-14T04:25:29.098Z,61.55
2022-09-14T04:28:19.057Z,61.00
2022-09-14T04:30:46.586Z,60.68
2022-09-14T04:33:15.134Z,61.05
2022-09-14T04:35:43.731Z,61.57
2022-09-14T04:38:12.526Z,61.95
2022-09-14T04:40:43.382Z,61.20
2022-09-14T04:43:12.018Z,60.85
2022-09-14T04:45:40.910Z,60.13
2022-09-14T04:48:09.759Z,60.53
2022-09-14T04:50:38.774Z,60.55
2022-09-14T04:53:07.339Z,60.48
2022-09-14T04:55:37.837Z,60.29
2022-09-14T04:58:08.096Z,60.05
2022-09-14T05:00:37.368Z,59.44
2022-09-14T05:03:06.679Z,60.49
2022-09-14T05:05:36.391Z,60.25
2022-09-14T05:08:05.077Z,59.52
2022-09-14T05:10:33.911Z,59.75
2022-09-14T05:13:02.453Z,59.98
2022-09-14T05:15:32.420Z,59.38
2022-09-14T05:18:01.338Z,59.16
2022-09-14T05:20:29.907Z,59.69
2022-09-14T05:22:58.489Z,59.43
2022-09-14T05:25:27.535Z,59.73
2022-09-14T05:27:56.107Z,59.22
2022-09-14T05:30:24.725Z,59.58
2022-09-14T05:32:57.960Z,59.43
2022-09-14T05:35:26.739Z,58.99
2022-09-14T05:37:55.567Z,58.12
2022-09-14T05:40:26.376Z,58.39
2022-09-14T05:42:55.030Z,58.60
2022-09-14T05:45:23.505Z,58.69
2022-09-14T05:47:52.066Z,58.74
2022-09-14T05:50:23.209Z,58.50
2022-09-14T05:52:51.767Z,58.14
2022-09-14T05:55:20.337Z,57.06
2022-09-14T05:57:50.207Z,56.91
2022-09-14T06:00:19.677Z,56.26
2022-09-14T06:02:49.339Z,56.28
2022-09-14T06:05:18.585Z,55.95
2022-09-14T06:07:52.339Z,59.04
2022-09-14T06:10:21.624Z,56.58
2022-09-14T06:12:54.802Z,54.73
2022-09-14T06:15:24.701Z,54.44
2022-09-14T06:17:53.371Z,55.05
2022-09-14T06:20:21.931Z,55.62
2022-09-14T06:22:52.176Z,54.88
2022-09-14T06:25:20.726Z,54.32
2022-09-14T06:27:49.283Z,54.32
2022-09-14T06:30:18.139Z,54.18
2022-09-14T06:32:46.726Z,54.37
2022-09-14T06:35:15.702Z,54.04
2022-09-14T06:37:44.766Z,53.97
2022-09-14T06:40:14.748Z,53.04
2022-09-14T06:42:43.439Z,53.20
2022-09-14T06:45:12.311Z,52.80
2022-09-14T06:47:40.885Z,52.22
2022-09-14T06:50:09.767Z,53.21
2022-09-14T06:52:39.613Z,53.46
2022-09-14T06:55:09.075Z,53.23
2022-09-14T06:57:42.914Z,55.76
2022-09-14T07:00:13.117Z,57.04
2022-09-14T07:02:41.771Z,58.75
2022-09-14T07:05:10.573Z,60.66
2022-09-14T07:07:39.421Z,62.27
2022-09-14T07:10:08.671Z,62.59
2022-09-14T07:12:38.572Z,62.94
2022-09-14T07:15:10.463Z,62.94
2022-09-14T07:17:39.009Z,62.65
2022-09-14T07:20:08.832Z,62.13
2022-09-14T07:22:37.707Z,63.10
2022-09-14T07:25:07.571Z,63.45
2022-09-14T07:27:39.464Z,63.00
2022-09-14T07:30:09.707Z,63.29
2022-09-14T07:32:38.237Z,62.80
2022-09-14T07:35:07.328Z,62.42
2022-09-14T07:37:36.154Z,62.44
2022-09-14T07:40:05.091Z,62.83
2022-09-14T07:42:33.668Z,62.40
2022-09-14T07:45:03.951Z,61.60
2022-09-14T07:47:32.615Z,61.81
2022-09-14T07:50:01.199Z,61.92
2022-09-14T07:52:32.801Z,62.42
2022-09-14T07:55:04.554Z,61.61
2022-09-14T07:57:54.599Z,62.39
2022-09-14T08:00:24.152Z,62.42
2022-09-14T08:02:53.860Z,62.54
2022-09-14T08:05:23.766Z,62.32
2022-09-14T08:07:55.075Z,61.36
2022-09-14T08:10:24.028Z,61.33
2022-09-14T08:12:52.920Z,59.25
2022-09-14T08:15:27.707Z,59.82
2022-09-14T08:17:56.956Z,60.48
2022-09-14T08:20:25.493Z,61.03
2022-09-14T08:22:53.939Z,61.07
2022-09-14T08:25:22.469Z,61.92
2022-09-14T08:27:51.107Z,61.80
2022-09-14T08:30:19.916Z,62.60
2022-09-14T08:32:49.747Z,62.18
2022-09-14T08:35:18.724Z,61.36
2022-09-14T08:37:52.510Z,61.48
2022-09-14T08:40:21.164Z,60.59
2022-09-14T08:42:49.860Z,60.40
2022-09-14T08:45:18.404Z,60.57
2022-09-14T08:47:47.075Z,59.91
2022-09-14T08:50:18.656Z,59.11
2022-09-14T08:52:52.885Z,57.61
2022-09-14T08:55:31.273Z,58.16
2022-09-14T08:58:07.492Z,57.74
2022-09-14T09:00:42.363Z,58.33
2022-09-14T09:03:29.671Z,58.61
2022-09-14T09:06:08.019Z,57.30
2022-09-14T09:08:50.854Z,57.46
2022-09-14T09:11:21.411Z,56.56
2022-09-14T09:13:55.632Z,56.77
2022-09-14T09:16:26.352Z,55.63
2022-09-14T09:18:59.575Z,53.87
2022-09-14T09:21:32.847Z,53.97
2022-09-14T09:24:05.768Z,53.48
2022-09-14T09:26:34.238Z,55.12
2022-09-14T09:29:05.822Z,54.19
2022-09-14T09:31:54.910Z,54.73
2022-09-14T09:34:28.131Z,54.11
2022-09-14T09:37:15.235Z,54.52
2022-09-14T09:39:44.579Z,53.31
2022-09-14T09:42:15.518Z,53.03
2022-09-14T09:45:02.469Z,53.53
2022-09-14T09:47:35.550Z,52.79
2022-09-14T09:50:06.573Z,52.81
2022-09-14T09:52:36.562Z,52.37
2022-09-14T09:55:07.123Z,53.01
2022-09-14T09:57:37.700Z,50.15
2022-09-14T10:00:13.119Z,51.97
2022-09-14T10:02:42.218Z,51.82
2022-09-14T10:05:21.328Z,52.50
2022-09-14T10:07:56.979Z,52.25
2022-09-14T10:10:40.123Z,51.53
2022-09-14T10:13:19.197Z,51.05
2022-09-14T10:15:48.978Z,51.31
2022-09-14T10:18:19.412Z,50.67
2022-09-14T10:21:07.176Z,50.36
2022-09-14T10:23:38.517Z,50.47
2022-09-14T10:26:28.773Z,50.20
2022-09-14T10:29:21.300Z,50.38
2022-09-14T10:31:51.436Z,49.74
2022-09-14T10:34:21.364Z,50.18
2022-09-14T10:36:54.939Z,49.95
2022-09-14T10:39:27.331Z,49.74
2022-09-14T10:42:02.844Z,49.62
2022-09-14T10:44:53.225Z,50.71
2022-09-14T10:47:37.558Z,50.07
2022-09-14T10:50:21.971Z,49.13
2022-09-14T10:52:58.578Z,49.38
2022-09-14T10:55:35.361Z,49.45
2022-09-14T10:58:21.325Z,48.89
2022-09-14T11:01:00.149Z,50.04
2022-09-14T11:03:42.765Z,50.54
2022-09-14T11:06:25.083Z,49.31
2022-09-14T11:08:57.529Z,50.38
2022-09-14T11:11:39.281Z,50.35
2022-09-14T11:14:24.862Z,49.66
2022-09-14T11:17:09.310Z,50.02
2022-09-14T11:19:42.904Z,50.75
2022-09-14T11:22:15.777Z,50.13
2022-09-14T11:24:47.397Z,49.57
2022-09-14T11:27:24.318Z,49.55
2022-09-14T11:29:55.645Z,50.54
2022-09-14T11:32:28.707Z,50.31
2022-09-14T11:35:01.407Z,50.74
2022-09-14T11:37:36.457Z,51.60
2022-09-14T11:40:10.687Z,51.89
2022-09-14T11:42:46.383Z,51.21
2022-09-14T11:45:20.031Z,51.36
2022-09-14T11:47:53.917Z,50.72
2022-09-14T11:50:25.307Z,50.32
2022-09-14T11:53:10.385Z,50.24
2022-09-14T11:55:43.966Z,49.83
2022-09-14T11:58:20.182Z,49.25
2022-09-14T12:01:26.745Z,49.49
2022-09-14T12:04:07.673Z,49.13
2022-09-14T12:07:00.382Z,49.42
2022-09-14T12:09:43.572Z,49.01
2022-09-14T12:12:36.661Z,49.11
2022-09-14T12:15:35.130Z,49.11
2022-09-14T12:18:22.298Z,49.09
2022-09-14T12:20:59.028Z,48.99
2022-09-14T12:23:30.672Z,48.57
2022-09-14T12:26:38.782Z,47.64
2022-09-14T12:29:26.701Z,46.49
2022-09-14T12:32:07.078Z,45.71
2022-09-14T12:34:35.663Z,47.40
2022-09-14T12:37:32.053Z,46.83
2022-09-14T12:40:38.305Z,45.83
2022-09-14T12:43:50.348Z,45.81
2022-09-14T12:46:41.859Z,44.84
2022-09-14T12:49:31.332Z,46.15
2022-09-14T12:52:05.534Z,46.09
2022-09-14T12:54:51.067Z,45.44
2022-09-14T12:57:44.548Z,45.90
2022-09-14T13:00:15.675Z,45.95
2022-09-14T13:02:50.578Z,46.04
2022-09-14T13:05:23.758Z,45.89
2022-09-14T13:07:52.795Z,46.49
2022-09-14T13:10:25.313Z,46.74
2022-09-14T13:12:54.257Z,45.34
2022-09-14T13:15:26.003Z,45.41
2022-09-14T13:17:59.086Z,45.01
2022-09-14T13:20:29.992Z,44.56
2022-09-14T13:22:58.726Z,44.04
2022-09-14T13:25:34.271Z,45.56
2022-09-14T13:28:05.561Z,44.68
2022-09-14T13:30:35.595Z,43.96
2022-09-14T13:33:04.978Z,43.01
2022-09-14T13:35:37.950Z,43.79
2022-09-14T13:38:10.174Z,43.29
2022-09-14T13:40:38.913Z,44.24
2022-09-14T13:43:08.019Z,44.48
2022-09-14T13:45:37.131Z,41.96
2022-09-14T13:48:06.475Z,42.99
2022-09-14T13:50:36.773Z,43.92
2022-09-14T13:53:05.482Z,44.08
2022-09-14T13:55:45.443Z,43.84
2022-09-14T13:58:22.520Z,43.84
2022-09-14T14:00:59.702Z,43.82
2022-09-14T14:03:32.124Z,43.40
2022-09-14T14:06:06.320Z,42.47
2022-09-14T14:08:37.320Z,43.56
2022-09-14T14:11:07.659Z,42.64
2022-09-14T14:13:38.391Z,42.31
2022-09-14T14:16:18.064Z,42.69
2022-09-14T14:18:56.519Z,42.73
2022-09-14T14:21:29.888Z,41.25
2022-09-14T14:24:17.908Z,42.27
2022-09-14T14:26:50.464Z,41.32
2022-09-14T14:29:19.869Z,41.59
2022-09-14T14:31:48.607Z,41.73
2022-09-14T14:34:22.759Z,41.52
2022-09-14T14:36:52.931Z,41.83
2022-09-14T14:39:22.720Z,41.73
2022-09-14T14:41:52.501Z,42.67
2022-09-14T14:44:24.240Z,43.35
2022-09-14T14:46:53.160Z,44.47
2022-09-14T14:49:21.974Z,43.40
2022-09-14T14:51:52.198Z,44.24
2022-09-14T14:54:21.340Z,43.63
2022-09-14T14:56:51.547Z,44.00
2022-09-14T14:59:29.388Z,44.33
2022-09-14T15:01:59.204Z,44.96
2022-09-14T15:04:28.215Z,44.62
2022-09-14T15:07:00.644Z,45.36
2022-09-14T15:09:32.054Z,45.38
2022-09-14T15:12:00.622Z,45.21
2022-09-14T15:14:29.424Z,45.98
2022-09-14T15:17:00.269Z,45.57
2022-09-14T15:19:29.627Z,45.87
2022-09-14T15:22:01.579Z,46.31
2022-09-14T15:24:30.962Z,46.52
2022-09-14T15:26:59.846Z,46.33
2022-09-14T15:29:28.406Z,46.36
2022-09-14T15:31:57.452Z,47.49
2022-09-14T15:34:26.095Z,48.51
2022-09-14T15:36:55.567Z,49.26
2022-09-14T15:39:27.727Z,49.46
2022-09-14T15:41:56.934Z,49.70
2022-09-14T15:44:26.102Z,49.83
2022-09-14T15:46:57.069Z,49.76
2022-09-14T15:49:26.571Z,50.78
2022-09-14T15:51:57.268Z,50.63
2022-09-14T15:54:32.677Z,50.85
2022-09-14T15:57:06.317Z,51.51
2022-09-14T15:59:35.652Z,51.99
2022-09-14T16:02:04.713Z,51.84
2022-09-14T16:04:36.480Z,52.11
2022-09-14T16:07:09.647Z,53.21
2022-09-14T16:09:41.278Z,52.99
2022-09-14T16:12:10.959Z,51.28
2022-09-14T16:14:39.883Z,52.11
2022-09-14T16:17:11.228Z,53.69
2022-09-14T16:19:40.144Z,52.82
2022-09-14T16:22:08.748Z,51.85
2022-09-14T16:24:37.324Z,53.29
2022-09-14T16:27:07.765Z,53.82
2022-09-14T16:29:36.451Z,54.18
2022-09-14T16:32:05.086Z,54.22
2022-09-14T16:34:33.962Z,54.40
2022-09-14T16:37:02.528Z,54.71
2022-09-14T16:39:31.718Z,55.45
2022-09-14T16:42:00.878Z,55.75
2022-09-14T16:44:31.217Z,55.58
2022-09-14T16:47:00.438Z,55.82
2022-09-14T16:49:29.124Z,56.07
2022-09-14T16:52:00.559Z,56.37
2022-09-14T16:54:31.650Z,56.58
2022-09-14T16:57:01.323Z,56.74
2022-09-14T16:59:31.521Z,57.59
2022-09-14T17:02:00.149Z,57.84
2022-09-14T17:04:28.810Z,57.88
2022-09-14T17:06:57.701Z,58.21
2022-09-14T17:09:28.406Z,58.60
2022-09-14T17:11:57.666Z,59.09
2022-09-14T17:14:27.349Z,59.36
2022-09-14T17:16:57.661Z,59.51
2022-09-14T17:19:27.057Z,59.83
2022-09-14T17:21:55.853Z,59.96
2022-09-14T17:24:25.907Z,60.52
2022-09-14T17:26:54.812Z,60.57
2022-09-14T17:29:23.485Z,60.62
2022-09-14T17:31:55.138Z,60.55
2022-09-14T17:34:25.634Z,60.78
2022-09-14T17:36:54.267Z,61.11
2022-09-14T17:39:22.847Z,60.82
2022-09-14T17:41:51.827Z,61.00
2022-09-14T17:44:20.653Z,61.51
2022-09-14T17:46:53.025Z,62.14
2022-09-14T17:49:23.008Z,61.81
2022-09-14T17:51:53.111Z,61.64
2022-09-14T17:54:22.000Z,62.31
2022-09-14T17:56:50.644Z,62.26
2022-09-14T17:59:21.119Z,61.74
2022-09-14T18:01:50.260Z,62.02
2022-09-14T18:04:19.489Z,61.91
2022-09-14T18:06:49.621Z,62.81
2022-09-14T18:09:22.464Z,62.42
2022-09-14T18:11:52.126Z,62.93
2022-09-14T18:14:20.776Z,62.73
2022-09-14T18:16:49.571Z,63.25
2022-09-14T18:19:18.522Z,62.75
2022-09-14T18:21:52.127Z,62.85
2022-09-14T18:24:23.417Z,63.35
2022-09-14T18:26:52.470Z,63.86
2022-09-14T18:29:23.432Z,63.50
2022-09-14T18:31:52.754Z,64.04
2022-09-14T18:34:22.501Z,63.91
2022-09-14T18:36:52.405Z,64.48
2022-09-14T18:39:23.009Z,64.49
2022-09-14T18:41:53.769Z,64.56
2022-09-14T18:44:23.097Z,64.29
2022-09-14T18:46:52.575Z,64.43
2022-09-14T18:49:24.096Z,64.57
2022-09-14T18:51:53.067Z,64.76
2022-09-14T18:54:27.601Z,65.11
2022-09-14T18:56:57.141Z,64.46
2022-09-14T18:59:26.964Z,64.58
2022-09-14T19:01:55.647Z,65.14
2022-09-14T19:04:24.865Z,64.97
2022-09-14T19:06:53.931Z,64.82
2022-09-14T19:09:26.821Z,64.81
2022-09-14T19:11:56.248Z,65.68
2022-09-14T19:14:25.347Z,65.69
2022-09-14T19:16:57.736Z,65.04
2022-09-14T19:19:27.014Z,65.80
2022-09-14T19:21:56.563Z,65.60
2022-09-14T19:24:31.073Z,66.11
2022-09-14T19:27:00.317Z,66.07
2022-09-14T19:29:30.010Z,65.90
2022-09-14T19:31:58.927Z,66.16
2022-09-14T19:34:29.149Z,66.26
2022-09-14T19:36:58.131Z,65.75
2022-09-14T19:39:28.639Z,66.30
2022-09-14T19:41:57.580Z,66.05
2022-09-14T19:44:26.661Z,65.89
2022-09-14T19:46:55.553Z,65.77
2022-09-14T19:49:27.243Z,65.36
2022-09-14T19:51:56.915Z,66.03
2022-09-14T19:54:25.914Z,66.02
2022-09-14T19:56:56.221Z,64.91
2022-09-14T19:59:25.702Z,64.99
2022-09-14T20:01:54.830Z,65.25
2022-09-14T20:04:24.132Z,65.67
2022-09-14T20:06:53.078Z,66.01
2022-09-14T20:09:23.765Z,66.72
2022-09-14T20:11:53.778Z,67.09
2022-09-14T20:14:25.238Z,66.76
2022-09-14T20:16:55.972Z,65.98
2022-09-14T20:19:26.604Z,66.03
2022-09-14T20:21:56.227Z,66.02
2022-09-14T20:24:26.820Z,66.04
2022-09-14T20:26:57.352Z,66.10
2022-09-14T20:29:29.386Z,66.65
2022-09-14T20:31:58.595Z,66.13
2022-09-14T20:34:27.178Z,66.45
2022-09-14T20:36:56.510Z,65.74
2022-09-14T20:39:25.488Z,65.53
2022-09-14T20:41:54.338Z,65.63
2022-09-14T20:44:23.322Z,66.08
2022-09-14T20:46:53.672Z,66.28
2022-09-14T20:49:23.534Z,65.73
2022-09-14T20:51:54.357Z,65.53
2022-09-14T20:54:23.715Z,66.59
2022-09-14T20:56:52.656Z,65.60
2022-09-14T20:59:22.861Z,66.14
2022-09-14T21:01:53.692Z,66.41
2022-09-14T21:04:24.409Z,66.37
2022-09-14T21:06:55.306Z,65.63
2022-09-14T21:09:25.469Z,65.23
2022-09-14T21:11:54.415Z,65.52
2022-09-14T21:14:23.486Z,64.99
2022-09-14T21:16:56.760Z,65.02
2022-09-14T21:19:28.010Z,65.04
2022-09-14T21:21:57.300Z,65.11
2022-09-14T21:24:26.265Z,65.81
2022-09-14T21:26:55.026Z,65.25
2022-09-14T21:29:24.673Z,64.95
2022-09-14T21:31:54.999Z,65.03
2022-09-14T21:34:26.265Z,65.14
2022-09-14T21:36:54.831Z,65.01
2022-09-14T21:39:27.286Z,64.96
2022-09-14T21:41:59.095Z,64.86
2022-09-14T21:44:31.921Z,65.26
2022-09-14T21:47:02.525Z,64.84
2022-09-14T21:49:31.296Z,63.75
2022-09-14T21:51:59.977Z,64.03
2022-09-14T21:54:29.175Z,64.51
2022-09-14T21:56:57.736Z,64.76
2022-09-14T21:59:26.448Z,65.03
2022-09-14T22:01:55.345Z,65.35
2022-09-14T22:04:26.909Z,65.43
2022-09-14T22:06:57.095Z,65.21
2022-09-14T22:09:28.844Z,65.12
2022-09-14T22:11:58.054Z,64.81
2022-09-14T22:14:28.668Z,64.68
2022-09-14T22:16:57.417Z,65.06
2022-09-14T22:19:29.461Z,64.92
2022-09-14T22:21:58.391Z,65.17
2022-09-14T22:24:37.045Z,65.70
2022-09-14T22:27:08.336Z,65.13
2022-09-14T22:29:37.735Z,65.48
2022-09-14T22:32:07.256Z,65.00
2022-09-14T22:34:37.898Z,65.36
2022-09-14T22:37:06.704Z,65.90
2022-09-14T22:39:35.396Z,65.34
2022-09-14T22:42:04.531Z,65.84
2022-09-14T22:44:33.090Z,65.80
2022-09-14T22:47:01.685Z,65.34
2022-09-14T22:49:30.852Z,65.32
2022-09-14T22:52:00.797Z,65.42
2022-09-14T22:54:29.345Z,65.46
2022-09-14T22:56:58.290Z,65.50
2022-09-14T22:59:26.920Z,65.00
2022-09-14T23:01:55.540Z,64.75
2022-09-14T23:04:24.604Z,64.36
2022-09-14T23:06:53.177Z,64.28
2022-09-14T23:09:23.340Z,64.24
2022-09-14T23:11:56.084Z,64.18
2022-09-14T23:14:24.767Z,63.86
2022-09-14T23:16:53.677Z,63.63
2022-09-14T23:19:22.322Z,63.82
2022-09-14T23:21:50.934Z,63.01
2022-09-14T23:24:19.804Z,62.96
2022-09-14T23:26:49.854Z,62.78
2022-09-14T23:29:18.635Z,62.26
2022-09-14T23:31:47.562Z,61.97
2022-09-14T23:34:16.780Z,61.85
2022-09-14T23:36:45.408Z,62.81
2022-09-14T23:39:14.526Z,63.66
2022-09-14T23:41:43.280Z,63.37
2022-09-14T23:44:13.521Z,63.79
2022-09-14T23:46:42.779Z,64.21
2022-09-14T23:49:12.493Z,63.20
2022-09-14T23:51:41.201Z,63.83
2022-09-14T23:54:10.595Z,64.27
2022-09-14T23:56:41.915Z,64.73
2022-09-14T23:59:13.963Z,64.95
